sensor_id;sensor_type;location;lat;lon;timestamp;temperature;humidity
29453;DHT22;16424;50.956;5.320;2023-09-19T00:00:45;16.80;99.90
29453;DHT22;16424;50.956;5.320;2023-09-19T00:03:13;16.80;99.90
29453;DHT22;16424;50.956;5.320;2023-09-19T00:05:39;16.90;99.90
29453;DHT22;16424;50.956;5.320;2023-09-19T00:08:05;16.90;99.90
29453;DHT22;16424;50.956;5.320;2023-09-19T00:10:32;16.60;99.90
29453;DHT22;16424;50.956;5.320;2023-09-19T00:13:01;16.60;99.90
29453;DHT22;16424;50.956;5.320;2023-09-19T00:15:35;16.50;99.90
29453;DHT22;16424;50.956;5.320;2023-09-19T00:18:03;16.50;99.90
29453;DHT22;16424;50.956;5.320;2023-09-19T00:20:30;16.50;99.90
29453;DHT22;16424;50.956;5.320;2023-09-19T00:22:56;16.50;99.90
29453;DHT22;16424;50.956;5.320;2023-09-19T00:25:24;16.60;99.90
29453;DHT22;16424;50.956;5.320;2023-09-19T00:27:52;16.50;99.90
29453;DHT22;16424;50.956;5.320;2023-09-19T00:30:17;16.50;99.90
29453;DHT22;16424;50.956;5.320;2023-09-19T00:32:50;16.70;99.90
29453;DHT22;16424;50.956;5.320;2023-09-19T00:35:20;16.80;99.90
29453;DHT22;16424;50.956;5.320;2023-09-19T00:37:46;16.70;99.90
29453;DHT22;16424;50.956;5.320;2023-09-19T00:40:12;16.60;99.90
29453;DHT22;16424;50.956;5.320;2023-09-19T00:42:48;16.30;99.90
29453;DHT22;16424;50.956;5.320;2023-09-19T00:45:16;16.20;99.90
29453;DHT22;16424;50.956;5.320;2023-09-19T00:47:44;16.20;99.90
29453;DHT22;16424;50.956;5.320;2023-09-19T00:50:12;16.30;99.90
29453;DHT22;16424;50.956;5.320;2023-09-19T00:52:40;16.40;99.90
29453;DHT22;16424;50.956;5.320;2023-09-19T00:55:08;16.50;99.90
29453;DHT22;16424;50.956;5.320;2023-09-19T00:57:36;16.60;99.90
29453;DHT22;16424;50.956;5.320;2023-09-19T01:00:04;16.80;99.90
29453;DHT22;16424;50.956;5.320;2023-09-19T01:02:35;16.80;99.90
29453;DHT22;16424;50.956;5.320;2023-09-19T01:05:01;16.80;99.90
29453;DHT22;16424;50.956;5.320;2023-09-19T01:07:27;16.70;99.90
29453;DHT22;16424;50.956;5.320;2023-09-19T01:09:59;16.60;99.90
29453;DHT22;16424;50.956;5.320;2023-09-19T01:18:09;16.50;99.90
29453;DHT22;16424;50.956;5.320;2023-09-19T01:21:07;16.40;99.90
29453;DHT22;16424;50.956;5.320;2023-09-19T01:29:47;16.40;99.90
29453;DHT22;16424;50.956;5.320;2023-09-19T01:32:20;16.40;99.90
29453;DHT22;16424;50.956;5.320;2023-09-19T01:34:54;16.40;99.90
29453;DHT22;16424;50.956;5.320;2023-09-19T01:37:22;16.40;99.90
29453;DHT22;16424;50.956;5.320;2023-09-19T01:40:12;16.50;99.90
29453;DHT22;16424;50.956;5.320;2023-09-19T01:45:47;16.60;99.90
29453;DHT22;16424;50.956;5.320;2023-09-19T01:51:05;16.50;99.90
29453;DHT22;16424;50.956;5.320;2023-09-19T01:56:45;16.50;99.90
29453;DHT22;16424;50.956;5.320;2023-09-19T01:59:20;16.40;99.90
29453;DHT22;16424;50.956;5.320;2023-09-19T02:01:48;16.40;99.90
29453;DHT22;16424;50.956;5.320;2023-09-19T02:04:15;16.40;99.90
29453;DHT22;16424;50.956;5.320;2023-09-19T02:06:41;16.40;99.90
29453;DHT22;16424;50.956;5.320;2023-09-19T02:09:07;16.30;99.90
29453;DHT22;16424;50.956;5.320;2023-09-19T02:11:34;16.30;99.90
29453;DHT22;16424;50.956;5.320;2023-09-19T02:14:00;16.30;99.90
29453;DHT22;16424;50.956;5.320;2023-09-19T02:16:26;16.40;99.90
29453;DHT22;16424;50.956;5.320;2023-09-19T02:18:54;16.20;99.90
29453;DHT22;16424;50.956;5.320;2023-09-19T02:21:19;16.30;99.90
29453;DHT22;16424;50.956;5.320;2023-09-19T02:23:47;16.40;99.90
29453;DHT22;16424;50.956;5.320;2023-09-19T02:26:13;16.40;99.90
29453;DHT22;16424;50.956;5.320;2023-09-19T02:28:39;16.40;99.90
29453;DHT22;16424;50.956;5.320;2023-09-19T02:31:05;16.20;99.90
29453;DHT22;16424;50.956;5.320;2023-09-19T02:33:31;16.10;99.90
29453;DHT22;16424;50.956;5.320;2023-09-19T02:36:01;16.20;99.90
29453;DHT22;16424;50.956;5.320;2023-09-19T02:38:29;16.10;99.90
29453;DHT22;16424;50.956;5.320;2023-09-19T02:40:55;16.10;99.90
29453;DHT22;16424;50.956;5.320;2023-09-19T02:43:21;16.20;99.90
29453;DHT22;16424;50.956;5.320;2023-09-19T02:45:48;16.20;99.90
29453;DHT22;16424;50.956;5.320;2023-09-19T02:48:15;16.20;99.90
29453;DHT22;16424;50.956;5.320;2023-09-19T02:50:42;16.20;99.90
29453;DHT22;16424;50.956;5.320;2023-09-19T02:53:08;16.10;99.90
29453;DHT22;16424;50.956;5.320;2023-09-19T02:55:34;16.10;99.90
29453;DHT22;16424;50.956;5.320;2023-09-19T02:58:00;16.00;99.90
29453;DHT22;16424;50.956;5.320;2023-09-19T03:00:27;16.00;99.90
29453;DHT22;16424;50.956;5.320;2023-09-19T03:02:56;16.00;99.90
29453;DHT22;16424;50.956;5.320;2023-09-19T03:05:23;16.00;99.90
29453;DHT22;16424;50.956;5.320;2023-09-19T03:07:52;16.00;99.90
29453;DHT22;16424;50.956;5.320;2023-09-19T03:10:18;16.00;99.90
29453;DHT22;16424;50.956;5.320;2023-09-19T03:12:44;16.00;99.90
29453;DHT22;16424;50.956;5.320;2023-09-19T03:15:10;15.90;99.90
29453;DHT22;16424;50.956;5.320;2023-09-19T03:17:37;15.90;99.90
29453;DHT22;16424;50.956;5.320;2023-09-19T03:20:03;15.90;99.90
29453;DHT22;16424;50.956;5.320;2023-09-19T03:22:34;15.80;99.90
29453;DHT22;16424;50.956;5.320;2023-09-19T03:25:00;16.00;99.90
29453;DHT22;16424;50.956;5.320;2023-09-19T03:27:26;15.90;99.90
29453;DHT22;16424;50.956;5.320;2023-09-19T03:29:52;16.00;99.90
29453;DHT22;16424;50.956;5.320;2023-09-19T03:32:19;16.10;99.90
29453;DHT22;16424;50.956;5.320;2023-09-19T03:34:45;16.10;99.90
29453;DHT22;16424;50.956;5.320;2023-09-19T03:37:10;16.00;99.90
29453;DHT22;16424;50.956;5.320;2023-09-19T03:39:37;16.00;99.90
29453;DHT22;16424;50.956;5.320;2023-09-19T03:42:03;15.90;99.90
29453;DHT22;16424;50.956;5.320;2023-09-19T03:44:32;15.90;99.90
29453;DHT22;16424;50.956;5.320;2023-09-19T03:46:58;15.90;99.90
29453;DHT22;16424;50.956;5.320;2023-09-19T03:49:24;16.00;99.90
29453;DHT22;16424;50.956;5.320;2023-09-19T03:51:50;16.00;99.90
29453;DHT22;16424;50.956;5.320;2023-09-19T03:54:15;16.00;99.90
29453;DHT22;16424;50.956;5.320;2023-09-19T03:56:42;15.80;99.90
29453;DHT22;16424;50.956;5.320;2023-09-19T03:59:09;15.80;99.90
29453;DHT22;16424;50.956;5.320;2023-09-19T04:01:35;15.90;99.90
29453;DHT22;16424;50.956;5.320;2023-09-19T04:04:00;15.80;99.90
29453;DHT22;16424;50.956;5.320;2023-09-19T04:06:34;16.00;99.90
29453;DHT22;16424;50.956;5.320;2023-09-19T04:09:01;15.90;99.90
29453;DHT22;16424;50.956;5.320;2023-09-19T04:11:27;15.80;99.90
29453;DHT22;16424;50.956;5.320;2023-09-19T04:13:53;15.80;99.90
29453;DHT22;16424;50.956;5.320;2023-09-19T04:16:19;15.90;99.90
29453;DHT22;16424;50.956;5.320;2023-09-19T04:18:45;15.80;99.90
29453;DHT22;16424;50.956;5.320;2023-09-19T04:21:10;15.80;99.90
29453;DHT22;16424;50.956;5.320;2023-09-19T04:23:36;15.80;99.90
29453;DHT22;16424;50.956;5.320;2023-09-19T04:26:02;15.90;99.90
29453;DHT22;16424;50.956;5.320;2023-09-19T04:28:30;15.90;99.90
29453;DHT22;16424;50.956;5.320;2023-09-19T04:30:56;15.90;99.90
29453;DHT22;16424;50.956;5.320;2023-09-19T04:33:23;16.00;99.90
29453;DHT22;16424;50.956;5.320;2023-09-19T04:35:51;15.90;99.90
29453;DHT22;16424;50.956;5.320;2023-09-19T04:38:18;15.90;99.90
29453;DHT22;16424;50.956;5.320;2023-09-19T04:40:45;15.70;99.90
29453;DHT22;16424;50.956;5.320;2023-09-19T04:43:11;15.90;99.90
29453;DHT22;16424;50.956;5.320;2023-09-19T04:45:38;16.10;99.90
29453;DHT22;16424;50.956;5.320;2023-09-19T04:48:05;16.20;99.90
29453;DHT22;16424;50.956;5.320;2023-09-19T04:50:32;16.20;99.90
29453;DHT22;16424;50.956;5.320;2023-09-19T04:52:59;16.20;99.90
29453;DHT22;16424;50.956;5.320;2023-09-19T04:55:26;16.10;99.90
29453;DHT22;16424;50.956;5.320;2023-09-19T04:57:53;16.00;99.90
29453;DHT22;16424;50.956;5.320;2023-09-19T05:00:23;15.90;99.90
29453;DHT22;16424;50.956;5.320;2023-09-19T05:02:55;15.90;99.90
29453;DHT22;16424;50.956;5.320;2023-09-19T05:05:22;15.90;99.90
29453;DHT22;16424;50.956;5.320;2023-09-19T05:07:49;15.80;99.90
29453;DHT22;16424;50.956;5.320;2023-09-19T05:10:15;15.90;99.90
29453;DHT22;16424;50.956;5.320;2023-09-19T05:12:43;15.80;99.90
29453;DHT22;16424;50.956;5.320;2023-09-19T05:15:11;15.80;99.90
29453;DHT22;16424;50.956;5.320;2023-09-19T05:17:37;15.80;99.90
29453;DHT22;16424;50.956;5.320;2023-09-19T05:20:04;15.70;99.90
29453;DHT22;16424;50.956;5.320;2023-09-19T05:22:41;15.50;99.90
29453;DHT22;16424;50.956;5.320;2023-09-19T05:25:08;15.50;99.90
29453;DHT22;16424;50.956;5.320;2023-09-19T05:27:34;15.50;99.90
29453;DHT22;16424;50.956;5.320;2023-09-19T05:30:00;15.60;99.90
29453;DHT22;16424;50.956;5.320;2023-09-19T05:32:25;15.60;99.90
29453;DHT22;16424;50.956;5.320;2023-09-19T05:34:51;15.60;99.90
29453;DHT22;16424;50.956;5.320;2023-09-19T05:37:21;15.60;99.90
29453;DHT22;16424;50.956;5.320;2023-09-19T05:39:48;15.60;99.90
29453;DHT22;16424;50.956;5.320;2023-09-19T05:42:14;15.30;99.90
29453;DHT22;16424;50.956;5.320;2023-09-19T05:44:40;15.40;99.90
29453;DHT22;16424;50.956;5.320;2023-09-19T05:47:06;15.40;99.90
29453;DHT22;16424;50.956;5.320;2023-09-19T05:49:37;15.50;99.90
29453;DHT22;16424;50.956;5.320;2023-09-19T05:52:06;15.50;99.90
29453;DHT22;16424;50.956;5.320;2023-09-19T05:54:32;15.50;99.90
29453;DHT22;16424;50.956;5.320;2023-09-19T05:57:00;15.50;99.90
29453;DHT22;16424;50.956;5.320;2023-09-19T05:59:25;15.60;99.90
29453;DHT22;16424;50.956;5.320;2023-09-19T06:01:51;15.70;99.90
29453;DHT22;16424;50.956;5.320;2023-09-19T06:04:17;15.60;99.90
29453;DHT22;16424;50.956;5.320;2023-09-19T06:06:44;15.80;99.90
29453;DHT22;16424;50.956;5.320;2023-09-19T06:09:10;15.70;99.90
29453;DHT22;16424;50.956;5.320;2023-09-19T06:11:36;15.70;99.90
29453;DHT22;16424;50.956;5.320;2023-09-19T06:14:02;15.80;99.90
29453;DHT22;16424;50.956;5.320;2023-09-19T06:16:29;15.90;99.90
29453;DHT22;16424;50.956;5.320;2023-09-19T06:18:55;15.80;99.90
29453;DHT22;16424;50.956;5.320;2023-09-19T06:21:25;16.00;99.90
29453;DHT22;16424;50.956;5.320;2023-09-19T06:23:52;16.00;99.90
29453;DHT22;16424;50.956;5.320;2023-09-19T06:26:18;16.00;99.90
29453;DHT22;16424;50.956;5.320;2023-09-19T06:28:44;16.10;99.90
29453;DHT22;16424;50.956;5.320;2023-09-19T06:31:10;16.30;99.90
29453;DHT22;16424;50.956;5.320;2023-09-19T06:33:38;16.40;99.90
29453;DHT22;16424;50.956;5.320;2023-09-19T06:36:05;16.30;99.90
29453;DHT22;16424;50.956;5.320;2023-09-19T06:38:31;16.20;99.90
29453;DHT22;16424;50.956;5.320;2023-09-19T06:40:59;16.40;99.90
29453;DHT22;16424;50.956;5.320;2023-09-19T06:43:26;16.40;99.90
29453;DHT22;16424;50.956;5.320;2023-09-19T06:45:53;16.50;99.90
29453;DHT22;16424;50.956;5.320;2023-09-19T06:48:20;16.60;99.90
29453;DHT22;16424;50.956;5.320;2023-09-19T06:50:46;16.70;99.90
29453;DHT22;16424;50.956;5.320;2023-09-19T06:53:13;16.80;99.90
29453;DHT22;16424;50.956;5.320;2023-09-19T06:55:39;16.90;99.90
29453;DHT22;16424;50.956;5.320;2023-09-19T06:58:05;16.80;99.90
29453;DHT22;16424;50.956;5.320;2023-09-19T07:00:31;16.80;99.90
29453;DHT22;16424;50.956;5.320;2023-09-19T07:03:00;17.20;99.90
29453;DHT22;16424;50.956;5.320;2023-09-19T07:05:34;17.10;99.90
29453;DHT22;16424;50.956;5.320;2023-09-19T07:08:03;17.50;99.90
29453;DHT22;16424;50.956;5.320;2023-09-19T07:10:29;17.80;99.90
29453;DHT22;16424;50.956;5.320;2023-09-19T07:13:04;18.20;99.90
29453;DHT22;16424;50.956;5.320;2023-09-19T07:15:32;18.20;99.90
29453;DHT22;16424;50.956;5.320;2023-09-19T07:18:01;18.20;99.90
29453;DHT22;16424;50.956;5.320;2023-09-19T07:20:27;18.30;99.90
29453;DHT22;16424;50.956;5.320;2023-09-19T07:22:55;18.10;99.90
29453;DHT22;16424;50.956;5.320;2023-09-19T07:25:21;18.00;99.90
29453;DHT22;16424;50.956;5.320;2023-09-19T07:27:47;17.80;99.90
29453;DHT22;16424;50.956;5.320;2023-09-19T07:30:12;18.10;99.90
29453;DHT22;16424;50.956;5.320;2023-09-19T07:32:39;18.10;99.90
29453;DHT22;16424;50.956;5.320;2023-09-19T07:35:06;18.00;99.90
29453;DHT22;16424;50.956;5.320;2023-09-19T07:37:32;18.40;99.90
29453;DHT22;16424;50.956;5.320;2023-09-19T07:40:02;18.50;99.90
29453;DHT22;16424;50.956;5.320;2023-09-19T07:42:33;18.60;99.90
29453;DHT22;16424;50.956;5.320;2023-09-19T07:45:01;18.80;99.90
29453;DHT22;16424;50.956;5.320;2023-09-19T07:47:26;18.60;99.90
29453;DHT22;16424;50.956;5.320;2023-09-19T07:49:53;19.00;99.90
29453;DHT22;16424;50.956;5.320;2023-09-19T07:52:18;19.00;99.90
29453;DHT22;16424;50.956;5.320;2023-09-19T07:54:44;18.80;99.90
29453;DHT22;16424;50.956;5.320;2023-09-19T07:57:10;18.90;99.90
29453;DHT22;16424;50.956;5.320;2023-09-19T07:59:37;18.70;99.90
29453;DHT22;16424;50.956;5.320;2023-09-19T08:02:04;18.90;99.90
29453;DHT22;16424;50.956;5.320;2023-09-19T08:04:30;19.10;99.90
29453;DHT22;16424;50.956;5.320;2023-09-19T08:06:58;19.20;99.90
29453;DHT22;16424;50.956;5.320;2023-09-19T08:09:26;19.40;99.90
29453;DHT22;16424;50.956;5.320;2023-09-19T08:11:53;19.70;99.90
29453;DHT22;16424;50.956;5.320;2023-09-19T08:14:18;19.50;99.90
29453;DHT22;16424;50.956;5.320;2023-09-19T08:16:44;19.40;99.90
29453;DHT22;16424;50.956;5.320;2023-09-19T08:19:10;20.10;99.90
29453;DHT22;16424;50.956;5.320;2023-09-19T08:21:36;19.60;99.90
29453;DHT22;16424;50.956;5.320;2023-09-19T08:24:02;19.50;99.90
29453;DHT22;16424;50.956;5.320;2023-09-19T08:26:29;19.40;99.90
29453;DHT22;16424;50.956;5.320;2023-09-19T08:28:56;19.80;99.90
29453;DHT22;16424;50.956;5.320;2023-09-19T08:31:21;19.80;99.90
29453;DHT22;16424;50.956;5.320;2023-09-19T08:33:49;19.80;99.90
29453;DHT22;16424;50.956;5.320;2023-09-19T08:36:16;20.00;99.90
29453;DHT22;16424;50.956;5.320;2023-09-19T08:38:42;20.30;99.90
29453;DHT22;16424;50.956;5.320;2023-09-19T08:41:08;20.00;99.90
29453;DHT22;16424;50.956;5.320;2023-09-19T08:43:34;20.10;99.90
29453;DHT22;16424;50.956;5.320;2023-09-19T08:46:19;20.60;99.90
29453;DHT22;16424;50.956;5.320;2023-09-19T08:48:54;20.60;99.90
29453;DHT22;16424;50.956;5.320;2023-09-19T08:51:42;21.30;99.90
29453;DHT22;16424;50.956;5.320;2023-09-19T08:54:40;21.30;99.90
29453;DHT22;16424;50.956;5.320;2023-09-19T08:57:07;20.60;99.90
29453;DHT22;16424;50.956;5.320;2023-09-19T08:59:38;20.60;99.90
29453;DHT22;16424;50.956;5.320;2023-09-19T09:02:16;20.30;99.90
29453;DHT22;16424;50.956;5.320;2023-09-19T09:04:45;19.80;99.90
29453;DHT22;16424;50.956;5.320;2023-09-19T09:07:13;20.20;99.90
29453;DHT22;16424;50.956;5.320;2023-09-19T09:09:40;20.20;99.90
29453;DHT22;16424;50.956;5.320;2023-09-19T09:12:11;20.40;99.90
29453;DHT22;16424;50.956;5.320;2023-09-19T09:14:47;20.60;99.90
29453;DHT22;16424;50.956;5.320;2023-09-19T09:17:18;20.90;99.90
29453;DHT22;16424;50.956;5.320;2023-09-19T09:19:46;21.00;99.90
29453;DHT22;16424;50.956;5.320;2023-09-19T09:22:13;21.10;99.90
29453;DHT22;16424;50.956;5.320;2023-09-19T09:24:54;20.50;99.90
29453;DHT22;16424;50.956;5.320;2023-09-19T09:27:23;20.50;99.90
29453;DHT22;16424;50.956;5.320;2023-09-19T09:29:50;20.50;99.90
29453;DHT22;16424;50.956;5.320;2023-09-19T09:34:53;21.60;99.90
29453;DHT22;16424;50.956;5.320;2023-09-19T09:37:20;21.60;99.90
29453;DHT22;16424;50.956;5.320;2023-09-19T09:42:36;21.30;99.90
29453;DHT22;16424;50.956;5.320;2023-09-19T09:45:25;21.50;99.90
29453;DHT22;16424;50.956;5.320;2023-09-19T09:48:03;21.60;99.90
29453;DHT22;16424;50.956;5.320;2023-09-19T09:50:36;21.50;99.90
29453;DHT22;16424;50.956;5.320;2023-09-19T09:53:25;21.40;99.90
29453;DHT22;16424;50.956;5.320;2023-09-19T09:56:03;21.00;99.90
29453;DHT22;16424;50.956;5.320;2023-09-19T09:58:49;21.10;99.90
29453;DHT22;16424;50.956;5.320;2023-09-19T10:01:15;20.90;99.90
29453;DHT22;16424;50.956;5.320;2023-09-19T10:03:42;20.90;99.90
29453;DHT22;16424;50.956;5.320;2023-09-19T10:06:17;20.80;99.90
29453;DHT22;16424;50.956;5.320;2023-09-19T10:09:03;20.80;99.90
29453;DHT22;16424;50.956;5.320;2023-09-19T10:12:07;20.40;99.90
29453;DHT22;16424;50.956;5.320;2023-09-19T10:14:37;20.00;99.90
29453;DHT22;16424;50.956;5.320;2023-09-19T10:17:05;20.00;99.90
29453;DHT22;16424;50.956;5.320;2023-09-19T10:19:42;19.90;99.90
29453;DHT22;16424;50.956;5.320;2023-09-19T10:22:12;19.80;99.90
29453;DHT22;16424;50.956;5.320;2023-09-19T10:24:47;19.50;99.90
29453;DHT22;16424;50.956;5.320;2023-09-19T10:27:12;19.60;99.90
29453;DHT22;16424;50.956;5.320;2023-09-19T10:29:44;19.80;99.90
29453;DHT22;16424;50.956;5.320;2023-09-19T10:32:14;20.00;99.90
29453;DHT22;16424;50.956;5.320;2023-09-19T10:34:48;19.80;99.90
29453;DHT22;16424;50.956;5.320;2023-09-19T10:37:16;19.90;99.90
29453;DHT22;16424;50.956;5.320;2023-09-19T10:39:52;19.90;99.90
29453;DHT22;16424;50.956;5.320;2023-09-19T10:42:19;19.90;99.90
29453;DHT22;16424;50.956;5.320;2023-09-19T10:44:47;20.00;99.90
29453;DHT22;16424;50.956;5.320;2023-09-19T10:47:14;20.10;99.90
29453;DHT22;16424;50.956;5.320;2023-09-19T10:49:45;20.20;99.90
29453;DHT22;16424;50.956;5.320;2023-09-19T10:52:19;20.20;99.90
29453;DHT22;16424;50.956;5.320;2023-09-19T10:54:47;20.10;99.90
29453;DHT22;16424;50.956;5.320;2023-09-19T10:57:24;20.20;99.90
29453;DHT22;16424;50.956;5.320;2023-09-19T11:00:06;20.20;99.90
29453;DHT22;16424;50.956;5.320;2023-09-19T11:05:40;20.60;99.90
29453;DHT22;16424;50.956;5.320;2023-09-19T11:08:09;20.70;99.90
29453;DHT22;16424;50.956;5.320;2023-09-19T11:10:47;21.00;99.90
29453;DHT22;16424;50.956;5.320;2023-09-19T11:13:27;21.00;99.90
29453;DHT22;16424;50.956;5.320;2023-09-19T11:26:48;20.90;99.90
29453;DHT22;16424;50.956;5.320;2023-09-19T11:29:30;20.90;99.90
29453;DHT22;16424;50.956;5.320;2023-09-19T11:31:57;20.80;99.90
29453;DHT22;16424;50.956;5.320;2023-09-19T11:37:03;21.20;99.90
29453;DHT22;16424;50.956;5.320;2023-09-19T11:40:08;21.00;99.90
29453;DHT22;16424;50.956;5.320;2023-09-19T11:42:48;21.30;99.90
29453;DHT22;16424;50.956;5.320;2023-09-19T11:48:14;21.00;99.90
29453;DHT22;16424;50.956;5.320;2023-09-19T11:50:43;21.20;99.90
29453;DHT22;16424;50.956;5.320;2023-09-19T11:53:13;21.30;99.90
29453;DHT22;16424;50.956;5.320;2023-09-19T11:55:40;21.50;99.90
29453;DHT22;16424;50.956;5.320;2023-09-19T11:58:09;21.60;99.90
29453;DHT22;16424;50.956;5.320;2023-09-19T12:00:38;22.00;99.90
29453;DHT22;16424;50.956;5.320;2023-09-19T12:03:10;21.90;99.90
29453;DHT22;16424;50.956;5.320;2023-09-19T12:05:36;21.70;99.90
29453;DHT22;16424;50.956;5.320;2023-09-19T12:08:04;21.50;99.90
29453;DHT22;16424;50.956;5.320;2023-09-19T12:10:33;21.50;99.90
29453;DHT22;16424;50.956;5.320;2023-09-19T12:12:59;21.40;99.90
29453;DHT22;16424;50.956;5.320;2023-09-19T12:15:28;21.60;99.90
29453;DHT22;16424;50.956;5.320;2023-09-19T12:17:59;21.40;99.90
29453;DHT22;16424;50.956;5.320;2023-09-19T12:20:41;21.50;99.90
29453;DHT22;16424;50.956;5.320;2023-09-19T12:23:15;21.40;99.90
29453;DHT22;16424;50.956;5.320;2023-09-19T12:25:44;21.50;99.90
29453;DHT22;16424;50.956;5.320;2023-09-19T12:28:13;21.20;99.90
29453;DHT22;16424;50.956;5.320;2023-09-19T12:30:39;21.40;99.90
29453;DHT22;16424;50.956;5.320;2023-09-19T12:33:19;21.40;99.90
29453;DHT22;16424;50.956;5.320;2023-09-19T12:35:46;21.30;99.90
29453;DHT22;16424;50.956;5.320;2023-09-19T12:38:25;21.30;99.90
29453;DHT22;16424;50.956;5.320;2023-09-19T12:40:55;21.30;99.90
29453;DHT22;16424;50.956;5.320;2023-09-19T12:43:22;21.30;99.90
29453;DHT22;16424;50.956;5.320;2023-09-19T12:45:48;21.50;99.90
29453;DHT22;16424;50.956;5.320;2023-09-19T12:48:21;21.50;99.90
29453;DHT22;16424;50.956;5.320;2023-09-19T12:51:14;21.60;99.90
29453;DHT22;16424;50.956;5.320;2023-09-19T12:53:43;21.40;99.90
29453;DHT22;16424;50.956;5.320;2023-09-19T12:56:14;21.60;99.90
29453;DHT22;16424;50.956;5.320;2023-09-19T12:58:53;21.70;99.90
29453;DHT22;16424;50.956;5.320;2023-09-19T13:01:19;21.50;99.90
29453;DHT22;16424;50.956;5.320;2023-09-19T13:03:45;21.30;99.90
29453;DHT22;16424;50.956;5.320;2023-09-19T13:06:11;21.20;99.90
29453;DHT22;16424;50.956;5.320;2023-09-19T13:08:39;21.10;99.90
29453;DHT22;16424;50.956;5.320;2023-09-19T13:11:14;21.20;99.90
29453;DHT22;16424;50.956;5.320;2023-09-19T13:13:42;21.50;99.90
29453;DHT22;16424;50.956;5.320;2023-09-19T13:16:11;21.80;99.90
29453;DHT22;16424;50.956;5.320;2023-09-19T13:21:30;21.60;99.90
29453;DHT22;16424;50.956;5.320;2023-09-19T13:24:19;21.50;99.90
29453;DHT22;16424;50.956;5.320;2023-09-19T13:26:45;21.60;99.90
29453;DHT22;16424;50.956;5.320;2023-09-19T13:29:11;21.60;99.90
29453;DHT22;16424;50.956;5.320;2023-09-19T13:31:37;21.60;99.90
29453;DHT22;16424;50.956;5.320;2023-09-19T13:34:06;21.50;99.90
29453;DHT22;16424;50.956;5.320;2023-09-19T13:36:32;21.50;99.90
29453;DHT22;16424;50.956;5.320;2023-09-19T13:38:59;21.50;99.90
29453;DHT22;16424;50.956;5.320;2023-09-19T13:41:25;21.40;99.90
29453;DHT22;16424;50.956;5.320;2023-09-19T13:43:51;21.20;99.90
29453;DHT22;16424;50.956;5.320;2023-09-19T13:46:18;21.60;99.90
29453;DHT22;16424;50.956;5.320;2023-09-19T13:48:51;21.50;99.90
29453;DHT22;16424;50.956;5.320;2023-09-19T13:51:20;21.60;99.90
29453;DHT22;16424;50.956;5.320;2023-09-19T13:53:48;21.90;99.90
29453;DHT22;16424;50.956;5.320;2023-09-19T13:56:15;21.90;99.90
29453;DHT22;16424;50.956;5.320;2023-09-19T13:58:41;22.00;99.90
29453;DHT22;16424;50.956;5.320;2023-09-19T14:01:07;21.80;99.90
29453;DHT22;16424;50.956;5.320;2023-09-19T14:03:38;21.40;99.90
29453;DHT22;16424;50.956;5.320;2023-09-19T14:06:04;21.40;99.90
29453;DHT22;16424;50.956;5.320;2023-09-19T14:08:30;21.50;99.90
29453;DHT22;16424;50.956;5.320;2023-09-19T14:10:56;21.30;99.90
29453;DHT22;16424;50.956;5.320;2023-09-19T14:13:21;21.20;99.90
29453;DHT22;16424;50.956;5.320;2023-09-19T14:15:47;20.80;99.90
29453;DHT22;16424;50.956;5.320;2023-09-19T14:18:13;20.90;99.90
29453;DHT22;16424;50.956;5.320;2023-09-19T14:20:39;21.10;99.90
29453;DHT22;16424;50.956;5.320;2023-09-19T14:23:07;20.90;99.90
29453;DHT22;16424;50.956;5.320;2023-09-19T14:25:35;20.80;99.90
29453;DHT22;16424;50.956;5.320;2023-09-19T14:28:02;20.70;99.90
29453;DHT22;16424;50.956;5.320;2023-09-19T14:30:28;20.60;99.90
29453;DHT22;16424;50.956;5.320;2023-09-19T14:32:53;20.50;99.90
29453;DHT22;16424;50.956;5.320;2023-09-19T14:35:19;20.50;99.90
29453;DHT22;16424;50.956;5.320;2023-09-19T14:37:45;20.70;99.90
29453;DHT22;16424;50.956;5.320;2023-09-19T14:40:11;20.60;99.90
29453;DHT22;16424;50.956;5.320;2023-09-19T14:42:39;20.70;99.90
29453;DHT22;16424;50.956;5.320;2023-09-19T14:45:05;20.70;99.90
29453;DHT22;16424;50.956;5.320;2023-09-19T14:47:32;20.60;99.90
29453;DHT22;16424;50.956;5.320;2023-09-19T14:50:03;20.70;99.90
29453;DHT22;16424;50.956;5.320;2023-09-19T14:52:32;20.90;99.90
29453;DHT22;16424;50.956;5.320;2023-09-19T14:55:00;21.00;99.90
29453;DHT22;16424;50.956;5.320;2023-09-19T14:57:26;20.90;99.90
29453;DHT22;16424;50.956;5.320;2023-09-19T14:59:52;20.90;99.90
29453;DHT22;16424;50.956;5.320;2023-09-19T15:02:17;20.90;99.90
29453;DHT22;16424;50.956;5.320;2023-09-19T15:04:43;20.90;99.90
29453;DHT22;16424;50.956;5.320;2023-09-19T15:07:10;20.90;99.90
29453;DHT22;16424;50.956;5.320;2023-09-19T15:09:35;21.00;99.90
29453;DHT22;16424;50.956;5.320;2023-09-19T15:12:01;20.90;99.90
29453;DHT22;16424;50.956;5.320;2023-09-19T15:14:27;20.70;99.90
29453;DHT22;16424;50.956;5.320;2023-09-19T15:16:55;20.60;99.90
29453;DHT22;16424;50.956;5.320;2023-09-19T15:19:21;20.60;99.90
29453;DHT22;16424;50.956;5.320;2023-09-19T15:21:48;20.80;99.90
29453;DHT22;16424;50.956;5.320;2023-09-19T15:24:13;20.90;99.90
29453;DHT22;16424;50.956;5.320;2023-09-19T15:26:40;20.90;99.90
29453;DHT22;16424;50.956;5.320;2023-09-19T15:29:09;21.10;99.90
29453;DHT22;16424;50.956;5.320;2023-09-19T15:31:35;21.00;99.90
29453;DHT22;16424;50.956;5.320;2023-09-19T15:34:02;21.20;99.90
29453;DHT22;16424;50.956;5.320;2023-09-19T15:36:28;21.00;99.90
29453;DHT22;16424;50.956;5.320;2023-09-19T15:39:03;20.90;99.90
29453;DHT22;16424;50.956;5.320;2023-09-19T15:43:59;20.80;99.90
29453;DHT22;16424;50.956;5.320;2023-09-19T15:46:27;20.90;99.90
29453;DHT22;16424;50.956;5.320;2023-09-19T15:48:53;20.60;99.90
29453;DHT22;16424;50.956;5.320;2023-09-19T15:51:19;20.60;99.90
29453;DHT22;16424;50.956;5.320;2023-09-19T15:53:46;20.60;99.90
29453;DHT22;16424;50.956;5.320;2023-09-19T15:56:19;20.50;99.90
29453;DHT22;16424;50.956;5.320;2023-09-19T15:58:53;20.50;99.90
29453;DHT22;16424;50.956;5.320;2023-09-19T16:01:19;20.60;99.90
29453;DHT22;16424;50.956;5.320;2023-09-19T16:03:48;20.50;99.90
29453;DHT22;16424;50.956;5.320;2023-09-19T16:06:19;20.30;99.90
29453;DHT22;16424;50.956;5.320;2023-09-19T16:08:49;20.30;99.90
29453;DHT22;16424;50.956;5.320;2023-09-19T16:11:16;20.30;99.90
29453;DHT22;16424;50.956;5.320;2023-09-19T16:13:43;20.40;99.90
29453;DHT22;16424;50.956;5.320;2023-09-19T16:16:11;20.40;99.90
29453;DHT22;16424;50.956;5.320;2023-09-19T16:18:39;20.10;99.90
29453;DHT22;16424;50.956;5.320;2023-09-19T16:21:05;20.10;99.90
29453;DHT22;16424;50.956;5.320;2023-09-19T16:23:33;20.20;99.90
29453;DHT22;16424;50.956;5.320;2023-09-19T16:26:05;20.00;99.90
29453;DHT22;16424;50.956;5.320;2023-09-19T16:28:36;19.80;99.90
29453;DHT22;16424;50.956;5.320;2023-09-19T16:31:06;19.70;99.90